Time;durP1;ratioP1;P1;durP2;ratioP2;P2;SDS_P1;SDS_P2;PMS_P1;PMS_P2;Temp;Humidity;BMP_temperature;BMP_pressure;BME280_temperature;BME280_humidity;BME280_pressure;Samples;Min_cycle;Max_cycle;Signal;HPM_P1;HPM_P2
2021/10/18 00:01:45;;;;;;;4.65;2.08;;;;;;;9.61;100.00;101377.16;5260863;28;20545;-82
2021/10/18 00:04:16;;;;;;;7.55;2.08;;;;;;;9.45;100.00;101375.75;5249826;28;20032;-81
2021/10/18 00:06:46;;;;;;;4.53;1.98;;;;;;;9.39;100.00;101374.09;5247553;28;20021;-81
2021/10/18 00:09:16;;;;;;;4.50;1.85;;;;;;;9.37;100.00;101372.38;5243435;28;20021;-81
2021/10/18 00:11:47;;;;;;;4.78;2.03;;;;;;;9.28;100.00;101367.34;5249944;28;20031;-81
2021/10/18 00:14:17;;;;;;;3.92;2.10;;;;;;;9.31;100.00;101372.50;5255999;28;20428;-81
2021/10/18 00:16:47;;;;;;;4.07;2.20;;;;;;;9.32;100.00;101384.66;5259131;28;20511;-81
2021/10/18 00:19:18;;;;;;;4.70;2.15;;;;;;;9.38;100.00;101387.16;5256596;28;20062;-81
2021/10/18 00:21:48;;;;;;;6.03;2.38;;;;;;;9.40;100.00;101382.75;5259549;28;20043;-81
2021/10/18 00:24:18;;;;;;;5.28;1.90;;;;;;;9.38;100.00;101381.94;5246543;28;20395;-81
2021/10/18 00:26:49;;;;;;;4.18;2.08;;;;;;;9.32;100.00;101382.91;5249320;28;20051;-81
2021/10/18 00:29:19;;;;;;;4.50;2.15;;;;;;;9.31;100.00;101377.72;5259686;28;20031;-81
2021/10/18 00:31:49;;;;;;;6.20;2.40;;;;;;;9.31;100.00;101380.34;5239918;28;20102;-81
2021/10/18 00:34:20;;;;;;;6.22;2.08;;;;;;;9.28;100.00;101383.00;5249126;28;20419;-81
2021/10/18 00:36:50;;;;;;;6.30;2.28;;;;;;;9.30;100.00;101376.00;5251174;28;20025;-81
2021/10/18 00:39:20;;;;;;;4.65;2.33;;;;;;;9.27;100.00;101381.25;5252473;28;20147;-81
2021/10/18 00:41:50;;;;;;;3.80;2.10;;;;;;;9.26;100.00;101369.09;5246635;28;20027;-81
2021/10/18 00:44:21;;;;;;;5.25;2.13;;;;;;;9.22;100.00;101377.88;5255872;28;20249;-80
2021/10/18 00:46:58;;;;;;;2.85;1.83;;;;;;;9.29;100.00;101384.72;5259384;28;20038;-81
2021/10/18 00:49:29;;;;;;;5.13;2.13;;;;;;;9.32;100.00;101389.88;5241572;28;20050;-81
2021/10/18 00:51:59;;;;;;;4.22;2.20;;;;;;;9.41;100.00;101384.47;5236643;28;20021;-81
2021/10/18 00:54:30;;;;;;;3.92;2.03;;;;;;;9.40;100.00;101382.75;5255837;28;20093;-81
2021/10/18 00:57:00;;;;;;;3.75;1.92;;;;;;;9.42;100.00;101381.00;5241364;28;20024;-81
2021/10/18 00:59:33;;;;;;;4.80;2.38;;;;;;;9.46;100.00;101377.47;5258221;28;20028;-81
2021/10/18 01:02:03;;;;;;;3.15;2.00;;;;;;;9.44;100.00;101385.31;5240745;28;20060;-81
2021/10/18 01:04:33;;;;;;;4.40;2.10;;;;;;;9.44;100.00;101381.81;5246310;28;20055;-81
2021/10/18 01:07:05;;;;;;;4.75;2.10;;;;;;;9.38;100.00;101389.75;5250715;28;20024;-81
2021/10/18 01:09:35;;;;;;;5.90;2.30;;;;;;;9.44;100.00;101387.91;5257706;28;20016;-81
2021/10/18 01:12:06;;;;;;;4.03;2.15;;;;;;;9.34;100.00;101375.06;5257675;28;20460;-81
2021/10/18 01:14:37;;;;;;;3.53;1.88;;;;;;;9.26;100.00;101374.31;5246438;28;20373;-81
2021/10/18 01:17:07;;;;;;;4.15;2.20;;;;;;;9.26;100.00;101371.72;5258536;28;20030;-80
2021/10/18 01:19:37;;;;;;;4.40;2.08;;;;;;;9.35;100.00;101374.16;5246857;28;20151;-81
2021/10/18 01:22:08;;;;;;;5.93;2.10;;;;;;;9.37;100.00;101368.06;5258306;28;20028;-81
2021/10/18 01:24:38;;;;;;;5.38;2.20;;;;;;;9.38;100.00;101376.72;5245406;28;20016;-81
2021/10/18 01:27:08;;;;;;;3.35;1.90;;;;;;;9.30;100.00;101378.63;5258335;28;20155;-81
2021/10/18 01:29:39;;;;;;;4.13;2.22;;;;;;;9.36;100.00;101376.75;5246160;28;20096;-81
2021/10/18 01:32:09;;;;;;;4.35;1.98;;;;;;;9.38;100.00;101382.81;5241742;28;20024;-81
2021/10/18 01:34:39;;;;;;;4.43;1.92;;;;;;;9.38;100.00;101377.59;5255010;28;20407;-80
2021/10/18 01:37:10;;;;;;;3.17;1.73;;;;;;;9.35;100.00;101382.84;5238140;28;20271;-81
2021/10/18 01:39:40;;;;;;;3.05;1.88;;;;;;;9.35;100.00;101384.59;5245684;28;20035;-81
2021/10/18 01:42:11;;;;;;;4.88;1.77;;;;;;;9.38;100.00;101392.38;5246634;28;20032;-81
2021/10/18 01:44:41;;;;;;;3.53;1.50;;;;;;;9.34;100.00;101385.50;5258158;28;20410;-81
2021/10/18 01:47:11;;;;;;;4.90;1.80;;;;;;;9.30;100.00;101382.06;5256532;28;20377;-81
2021/10/18 01:49:41;;;;;;;4.88;1.80;;;;;;;9.23;100.00;101379.59;5248419;28;20028;-81
2021/10/18 01:52:12;;;;;;;5.00;1.80;;;;;;;9.20;100.00;101390.09;5245290;28;20036;-80
2021/10/18 01:54:42;;;;;;;3.67;1.98;;;;;;;9.20;100.00;101390.09;5257824;28;20088;-81
2021/10/18 01:57:12;;;;;;;3.80;1.95;;;;;;;9.24;100.00;101391.75;5255800;28;20067;-81
2021/10/18 01:59:43;;;;;;;2.88;1.90;;;;;;;9.26;100.00;101385.63;5258135;28;20040;-81
2021/10/18 02:02:13;;;;;;;3.20;1.73;;;;;;;9.25;100.00;101388.25;5258832;28;20024;-81
2021/10/18 02:04:43;;;;;;;3.30;1.80;;;;;;;9.29;100.00;101385.56;5254715;28;20101;-81
2021/10/18 02:07:13;;;;;;;4.22;2.22;;;;;;;9.32;100.00;101387.28;5237156;28;20012;-81
2021/10/18 02:09:44;;;;;;;2.72;1.77;;;;;;;9.31;100.00;101382.94;5245563;28;20035;-81
2021/10/18 02:12:14;;;;;;;3.20;1.73;;;;;;;9.26;100.00;101390.84;5257794;28;20024;-80
2021/10/18 02:14:45;;;;;;;4.55;1.77;;;;;;;9.31;100.00;101385.56;5248664;28;20024;-81
2021/10/18 02:17:15;;;;;;;3.15;1.80;;;;;;;9.28;100.00;101385.63;5251794;28;20023;-80
2021/10/18 02:19:46;;;;;;;3.45;2.05;;;;;;;9.32;100.00;101385.50;5248849;28;20478;-81
2021/10/18 02:22:16;;;;;;;3.72;1.80;;;;;;;9.27;100.00;101389.06;5252411;28;20187;-81
2021/10/18 02:24:46;;;;;;;5.65;1.92;;;;;;;9.29;100.00;101390.78;5252265;28;20494;-80
2021/10/18 02:27:17;;;;;;;4.22;2.20;;;;;;;9.26;100.00;101384.75;5248970;28;20016;-81
2021/10/18 02:29:47;;;;;;;4.13;1.70;;;;;;;9.37;100.00;101386.31;5247992;28;20476;-81
2021/10/18 02:32:17;;;;;;;4.72;2.08;;;;;;;9.24;100.00;101386.53;5246581;28;20028;-81
2021/10/18 02:34:48;;;;;;;3.92;1.70;;;;;;;9.26;100.00;101384.75;5257645;28;20039;-81
2021/10/18 02:37:18;;;;;;;4.10;1.80;;;;;;;9.28;100.00;101380.41;5241173;28;20492;-81
2021/10/18 02:39:48;;;;;;;3.22;1.80;;;;;;;9.25;100.00;101385.63;5249050;28;20032;-81
2021/10/18 02:42:19;;;;;;;4.90;1.70;;;;;;;9.21;100.00;101387.47;5249362;28;20115;-81
2021/10/18 02:44:49;;;;;;;3.10;1.90;;;;;;;9.17;100.00;101380.56;5261491;28;20051;-81
2021/10/18 02:47:19;;;;;;;3.70;1.67;;;;;;;9.22;100.00;101377.88;5258619;28;20017;-81
2021/10/18 02:49:50;;;;;;;6.65;1.50;;;;;;;9.07;100.00;101379.91;5252097;28;20574;-81
2021/10/18 02:52:20;;;;;;;3.15;1.85;;;;;;;8.85;100.00;101384.59;5248393;28;20024;-80
2021/10/18 02:54:50;;;;;;;3.05;1.80;;;;;;;8.80;100.00;101383.81;5251496;28;20032;-81
2021/10/18 02:57:21;;;;;;;3.83;1.90;;;;;;;8.84;100.00;101387.19;5258974;28;20052;-81
2021/10/18 02:59:51;;;;;;;3.58;1.73;;;;;;;8.72;100.00;101387.41;5261369;28;20051;-81
2021/10/18 03:02:21;;;;;;;3.03;1.70;;;;;;;8.85;100.00;101381.97;5260854;28;20030;-81
2021/10/18 03:04:52;;;;;;;3.55;1.90;;;;;;;8.89;100.00;101388.84;5248030;28;20032;-81
2021/10/18 03:07:22;;;;;;;4.40;1.80;;;;;;;8.67;100.00;101387.47;5240543;28;20052;-81
2021/10/18 03:09:52;;;;;;;4.60;1.80;;;;;;;8.54;100.00;101387.69;5247730;28;20071;-81
2021/10/18 03:12:23;;;;;;;4.70;1.85;;;;;;;8.59;100.00;101389.31;5257839;28;20056;-80
2021/10/18 03:14:53;;;;;;;3.70;1.83;;;;;;;8.68;100.00;101398.75;5250974;28;20700;-81
2021/10/18 03:17:23;;;;;;;3.58;1.70;;;;;;;8.35;100.00;101389.66;5247408;28;20102;-81
2021/10/18 03:19:53;;;;;;;3.70;1.80;;;;;;;8.26;100.00;101395.03;5258771;28;20021;-81
2021/10/18 03:22:24;;;;;;;3.75;1.50;;;;;;;8.28;100.00;101400.19;5259680;28;20032;-81
2021/10/18 03:24:54;;;;;;;3.55;1.92;;;;;;;8.35;100.00;101400.09;5248034;28;20033;-81
2021/10/18 03:27:24;;;;;;;4.47;1.90;;;;;;;8.30;100.00;101394.09;5240941;28;20019;-81
2021/10/18 03:29:55;;;;;;;4.82;1.90;;;;;;;8.32;100.00;101402.75;5244827;28;20024;-80
2021/10/18 03:32:25;;;;;;;2.60;1.60;;;;;;;8.41;100.00;101400.00;5258444;28;20016;-80
2021/10/18 03:34:55;;;;;;;5.72;1.80;;;;;;;8.33;100.00;101394.03;5249813;28;20028;-80
2021/10/18 03:37:26;;;;;;;2.92;1.48;;;;;;;8.38;100.00;101391.38;5239658;28;20401;-81
2021/10/18 03:39:56;;;;;;;3.35;1.70;;;;;;;8.39;100.00;101395.72;5247479;28;20138;-81
2021/10/18 03:42:26;;;;;;;2.55;1.50;;;;;;;8.34;100.00;101403.56;5248440;28;20039;-81
2021/10/18 03:44:57;;;;;;;3.13;1.40;;;;;;;8.36;100.00;101404.41;5250197;28;20028;-81
2021/10/18 03:47:27;;;;;;;2.80;1.75;;;;;;;8.37;100.00;101403.53;5249195;28;20023;-80
2021/10/18 03:49:57;;;;;;;3.00;1.70;;;;;;;8.39;100.00;101399.16;5259242;28;20165;-81
2021/10/18 03:52:27;;;;;;;3.80;1.60;;;;;;;8.30;100.00;101401.03;5249999;28;20233;-81
2021/10/18 03:54:58;;;;;;;3.30;1.80;;;;;;;8.34;100.00;101407.91;5249079;28;20028;-81
2021/10/18 03:57:28;;;;;;;4.60;1.67;;;;;;;8.37;100.00;101398.31;5254950;28;20377;-81
2021/10/18 03:59:58;;;;;;;2.80;1.70;;;;;;;8.33;100.00;101406.19;5253526;28;20028;-81
2021/10/18 04:02:29;;;;;;;3.92;1.60;;;;;;;8.24;100.00;101408.94;5244096;28;20576;-81
2021/10/18 04:04:59;;;;;;;4.88;1.88;;;;;;;8.10;100.00;101408.19;5248147;28;20583;-80
2021/10/18 04:07:29;;;;;;;6.00;1.92;;;;;;;8.09;100.00;101411.69;5250597;28;20052;-81
2021/10/18 04:09:59;;;;;;;3.85;1.90;;;;;;;8.19;100.00;101415.94;5256542;28;20028;-81
2021/10/18 04:12:30;;;;;;;3.15;1.75;;;;;;;8.16;100.00;101409.00;5248337;28;20080;-81
2021/10/18 04:15:00;;;;;;;3.78;2.00;;;;;;;8.07;100.00;101406.47;5257742;28;20028;-81
2021/10/18 04:17:30;;;;;;;5.20;2.05;;;;;;;8.09;100.00;101409.09;5247501;28;20094;-81
2021/10/18 04:20:01;;;;;;;4.13;1.92;;;;;;;8.14;100.00;101405.53;5248387;28;20047;-81
2021/10/18 04:22:32;;;;;;;4.43;1.95;;;;;;;8.10;100.00;101408.19;5258741;28;20024;-81
2021/10/18 04:25:03;;;;;;;3.22;1.70;;;;;;;8.14;100.00;101409.88;5257523;28;20521;-81
2021/10/18 04:27:33;;;;;;;4.40;1.75;;;;;;;8.10;100.00;101408.19;5248964;28;20029;-81
2021/10/18 04:30:05;;;;;;;3.60;1.63;;;;;;;8.18;100.00;101412.47;5243632;28;20028;-81
2021/10/18 04:32:35;;;;;;;3.05;1.42;;;;;;;7.99;100.00;101417.88;5252210;28;20099;-80
2021/10/18 04:35:06;;;;;;;3.25;1.55;;;;;;;7.84;100.00;101418.91;5255538;28;20066;-80
2021/10/18 04:37:37;;;;;;;2.33;1.50;;;;;;;7.78;100.00;101419.00;5238862;28;20028;-80
2021/10/18 04:40:07;;;;;;;3.20;1.60;;;;;;;7.74;100.00;101426.84;5246255;28;20052;-80
2021/10/18 04:42:38;;;;;;;3.85;1.80;;;;;;;7.72;100.00;101434.66;5242460;28;20077;-80
2021/10/18 04:45:10;;;;;;;3.60;1.73;;;;;;;7.67;100.00;101433.84;5256663;28;20087;-81
2021/10/18 04:47:47;;;;;;;3.38;1.70;;;;;;;7.61;100.00;101433.91;5249824;28;20425;-80
2021/10/18 04:50:20;;;;;;;3.65;1.80;;;;;;;7.64;100.00;101438.19;5252540;28;20048;-80
2021/10/18 04:52:51;;;;;;;6.75;1.90;;;;;;;7.60;100.00;101434.78;5250209;28;20031;-81
2021/10/18 04:55:21;;;;;;;3.38;1.60;;;;;;;7.75;100.00;101421.63;5255647;28;20131;-80
2021/10/18 04:58:00;;;;;;;2.78;1.85;;;;;;;7.65;100.00;101430.41;5248937;28;20032;-81
2021/10/18 05:00:36;;;;;;;4.25;1.85;;;;;;;7.59;100.00;101430.47;5243554;28;20088;-81
2021/10/18 05:03:06;;;;;;;3.40;1.58;;;;;;;7.48;100.00;101432.28;5254285;28;20028;-81
2021/10/18 05:05:36;;;;;;;2.58;1.58;;;;;;;7.39;100.00;101429.75;5245830;28;20549;-81
2021/10/18 05:08:12;;;;;;;3.10;1.80;;;;;;;7.46;100.00;101444.47;5248568;28;20025;-81
2021/10/18 05:10:42;;;;;;;;;;;;;;;7.49;100.00;101449.63;5259648;28;20448;-81
2021/10/18 05:13:15;;;;;;;3.85;1.60;;;;;;;7.48;100.00;101439.22;5259272;28;19947;-81
2021/10/18 05:15:48;;;;;;;2.97;1.50;;;;;;;7.64;100.00;101428.69;5244615;28;20031;-81
2021/10/18 05:18:20;;;;;;;11.05;1.85;;;;;;;7.46;100.00;101441.84;5251507;28;20016;-81
2021/10/18 05:20:51;;;;;;;3.35;1.70;;;;;;;7.50;100.00;101440.94;5248730;28;20441;-81
2021/10/18 05:23:21;;;;;;;4.80;1.60;;;;;;;7.40;100.00;101439.31;5245941;28;20037;-81
2021/10/18 05:25:51;;;;;;;3.35;1.50;;;;;;;7.47;100.00;101440.97;5258507;28;20031;-81
2021/10/18 05:28:22;;;;;;;2.78;1.40;;;;;;;7.38;100.00;101441.03;5246116;28;20024;-81
2021/10/18 05:30:52;;;;;;;2.85;1.50;;;;;;;7.55;100.00;101441.75;5254390;28;20035;-81
2021/10/18 05:33:22;;;;;;;2.05;1.42;;;;;;;7.54;100.00;101442.63;5242961;28;20048;-81
2021/10/18 05:35:53;;;;;;;2.30;1.45;;;;;;;7.59;100.00;101435.66;5242504;28;20020;-81
2021/10/18 05:38:23;;;;;;;3.45;1.80;;;;;;;7.61;100.00;101451.25;5238060;28;20024;-81
2021/10/18 05:40:54;;;;;;;2.97;1.60;;;;;;;7.64;100.00;101459.88;5246262;28;20029;-81
2021/10/18 05:43:24;;;;;;;7.68;1.80;;;;;;;7.72;100.00;101462.41;5249124;28;20475;-81
2021/10/18 05:45:54;;;;;;;3.03;1.58;;;;;;;7.79;100.00;101472.75;5250292;28;20024;-81
2021/10/18 05:48:24;;;;;;;2.97;1.50;;;;;;;7.95;100.00;101466.50;5253671;28;20056;-81
2021/10/18 05:50:55;;;;;;;2.80;1.67;;;;;;;7.91;100.00;101466.56;5263941;28;20044;-81
2021/10/18 05:53:25;;;;;;;3.30;1.70;;;;;;;7.84;100.00;101463.16;5251394;28;20480;-81
2021/10/18 05:55:55;;;;;;;3.70;1.80;;;;;;;7.74;100.00;101479.72;5252302;28;20028;-81
2021/10/18 05:58:26;;;;;;;3.13;1.83;;;;;;;7.75;100.00;101483.19;5259717;28;20032;-81
2021/10/18 06:00:56;;;;;;;4.97;1.75;;;;;;;7.78;100.00;101489.25;5243812;28;21318;-81
2021/10/18 06:03:26;;;;;;;3.00;1.73;;;;;;;7.76;100.00;101496.22;5249651;28;20084;-81
2021/10/18 06:05:56;;;;;;;3.13;1.58;;;;;;;7.89;100.00;101503.00;5243461;28;20039;-82
2021/10/18 06:08:27;;;;;;;3.78;1.60;;;;;;;8.01;100.00;101491.63;5245313;28;20033;-82
2021/10/18 06:10:57;;;;;;;3.20;1.70;;;;;;;7.92;100.00;101497.78;5252285;28;20038;-82
2021/10/18 06:13:27;;;;;;;2.85;1.73;;;;;;;7.91;100.00;101496.03;5251607;28;20035;-82
2021/10/18 06:15:58;;;;;;;3.47;1.95;;;;;;;7.97;100.00;101488.19;5250342;28;20032;-82
2021/10/18 06:18:28;;;;;;;4.93;1.90;;;;;;;8.21;100.00;101490.53;5261803;28;20027;-82
2021/10/18 06:20:58;;;;;;;3.75;1.98;;;;;;;8.20;100.00;101499.22;5250830;28;20063;-82
2021/10/18 06:23:29;;;;;;;4.57;2.05;;;;;;;8.24;100.00;101494.84;5261251;28;20327;-82
2021/10/18 06:25:59;;;;;;;4.75;1.90;;;;;;;8.43;100.00;101505.06;5250394;28;20086;-82
2021/10/18 06:28:29;;;;;;;3.35;2.03;;;;;;;8.36;100.00;101505.97;5253369;28;20668;-82
2021/10/18 06:30:59;;;;;;;4.40;2.05;;;;;;;8.53;100.00;101504.03;5262434;28;20028;-82
2021/10/18 06:33:30;;;;;;;3.10;1.80;;;;;;;8.83;100.00;101507.97;5249787;28;20115;-82
2021/10/18 06:36:00;;;;;;;3.58;1.75;;;;;;;8.88;100.00;101504.44;5246679;28;20033;-82
2021/10/18 06:38:31;;;;;;;6.00;2.22;;;;;;;8.82;100.00;101512.34;5255304;28;20032;-82
2021/10/18 06:41:01;;;;;;;4.72;2.20;;;;;;;8.78;100.00;101509.78;5263175;28;20032;-82
2021/10/18 06:43:31;;;;;;;4.32;2.40;;;;;;;8.92;100.00;101508.72;5261916;28;20416;-82
2021/10/18 06:46:02;;;;;;;4.60;2.22;;;;;;;8.91;100.00;101507.00;5251996;28;20028;-82
2021/10/18 06:48:35;;;;;;;8.65;2.20;;;;;;;8.80;100.00;101516.72;5251646;28;20024;-82
2021/10/18 06:51:06;;;;;;;4.85;2.10;;;;;;;8.81;100.00;101510.63;5248107;28;20225;-82
2021/10/18 06:53:37;;;;;;;5.45;2.15;;;;;;;8.92;100.00;101506.09;5251459;28;20303;-82
2021/10/18 06:56:07;;;;;;;3.25;2.00;;;;;;;8.99;100.00;101499.94;5260171;28;20039;-82
2021/10/18 06:58:38;;;;;;;3.47;2.05;;;;;;;9.04;100.00;101505.09;5250068;28;20027;-82
2021/10/18 07:01:08;;;;;;;4.15;2.10;;;;;;;9.17;100.00;101507.50;5233678;28;20424;-82
2021/10/18 07:03:38;;;;;;;6.05;2.30;;;;;;;9.18;100.00;101507.44;5239336;28;20291;-82
2021/10/18 07:06:09;;;;;;;3.72;2.05;;;;;;;9.46;100.00;101513.13;5254814;28;20404;-82
2021/10/18 07:08:39;;;;;;;4.13;2.35;;;;;;;9.68;100.00;101511.88;5238502;28;20114;-82
2021/10/18 07:11:09;;;;;;;5.80;2.60;;;;;;;10.09;100.00;101517.25;5239926;28;20088;-82
2021/10/18 07:13:39;;;;;;;4.15;2.40;;;;;;;10.00;100.00;101514.78;5240602;28;20027;-82
2021/10/18 07:16:10;;;;;;;4.57;2.00;;;;;;;10.13;100.00;101503.28;5238721;28;20067;-82
2021/10/18 07:18:40;;;;;;;3.35;2.15;;;;;;;9.96;100.00;101503.53;5235963;28;20050;-82
2021/10/18 07:21:11;;;;;;;4.57;2.13;;;;;;;9.90;100.00;101513.22;5250316;28;20028;-82
2021/10/18 07:23:41;;;;;;;4.47;1.80;;;;;;;9.91;100.00;101520.16;5247893;28;20499;-83
2021/10/18 07:26:11;;;;;;;4.00;1.70;;;;;;;9.98;100.00;101519.19;5242884;28;20019;-83
2021/10/18 07:28:42;;;;;;;5.63;1.92;;;;;;;9.93;100.00;101524.47;5258065;28;20077;-82
2021/10/18 07:31:13;;;;;;;2.97;1.80;;;;;;;9.93;100.00;101524.47;5252893;28;20036;-83
2021/10/18 07:33:43;;;;;;;4.88;1.70;;;;;;;10.14;100.00;101526.72;5239900;28;20059;-82
2021/10/18 07:36:22;;;;;;;4.38;1.73;;;;;;;10.48;100.00;101529.56;5255071;28;20035;-83
2021/10/18 07:38:53;;;;;;;3.38;1.60;;;;;;;10.53;99.62;101530.34;5237113;28;20411;-83
2021/10/18 07:41:24;;;;;;;2.80;1.58;;;;;;;10.69;98.12;101536.97;5253924;28;20028;-83
2021/10/18 07:43:55;;;;;;;2.53;1.45;;;;;;;10.75;99.14;101537.72;5255227;28;20131;-83
2021/10/18 07:46:25;;;;;;;6.10;1.58;;;;;;;11.07;98.67;101543.13;5239668;28;20070;-83
2021/10/18 07:48:55;;;;;;;3.45;1.55;;;;;;;11.27;96.60;101541.75;5252152;28;20081;-83
2021/10/18 07:51:26;;;;;;;5.70;1.67;;;;;;;11.92;93.17;101537.59;5250535;28;20020;-83
2021/10/18 07:53:56;;;;;;;2.95;1.60;;;;;;;14.11;90.89;101527.31;5251791;28;20222;-83
2021/10/18 07:56:27;;;;;;;6.45;1.70;;;;;;;14.61;79.84;101526.41;5248005;28;20028;-83
2021/10/18 07:58:57;;;;;;;2.92;1.65;;;;;;;15.88;76.79;101523.09;5237450;28;20090;-83
2021/10/18 08:01:27;;;;;;;5.30;1.48;;;;;;;15.75;76.10;101530.66;5258400;28;20102;-83
2021/10/18 08:03:58;;;;;;;3.15;1.50;;;;;;;17.01;73.95;101527.66;5259987;28;20047;-84
2021/10/18 08:06:28;;;;;;;2.03;1.27;;;;;;;17.38;71.67;101522.34;5257158;28;20021;-84
2021/10/18 08:08:58;;;;;;;3.43;1.47;;;;;;;17.05;68.93;101518.66;5237386;28;20333;-84
2021/10/18 08:11:29;;;;;;;4.13;1.50;;;;;;;17.12;69.85;101520.09;5236243;28;20267;-83
2021/10/18 08:13:59;;;;;;;5.50;1.60;;;;;;;16.32;70.28;101522.88;5248982;28;20029;-83
2021/10/18 08:16:29;;;;;;;3.15;1.38;;;;;;;16.23;71.95;101523.28;5248463;28;20107;-82
2021/10/18 08:18:59;;;;;;;4.18;1.58;;;;;;;16.20;70.11;101520.78;5238753;28;20111;-83
2021/10/18 08:21:30;;;;;;;3.42;1.60;;;;;;;16.10;72.68;101518.59;5236832;28;20028;-83
2021/10/18 08:24:01;;;;;;;5.47;1.70;;;;;;;16.31;70.63;101515.91;5234038;28;20021;-83
2021/10/18 08:26:31;;;;;;;2.90;1.45;;;;;;;17.42;68.43;101510.69;5258336;28;20024;-84
2021/10/18 08:29:02;;;;;;;4.55;1.73;;;;;;;16.96;69.13;101512.00;5260656;28;20028;-84
2021/10/18 08:31:32;;;;;;;4.80;1.50;;;;;;;17.10;68.74;101520.16;5249423;28;20028;-83
2021/10/18 08:34:02;;;;;;;3.97;1.58;;;;;;;17.51;66.86;101512.91;5250355;28;20020;-83
2021/10/18 08:36:36;;;;;;;4.40;1.63;;;;;;;16.99;68.01;101518.94;5235679;28;20032;-83
2021/10/18 08:42:07;;;;;;;3.60;1.80;;;;;;;18.39;64.73;101512.78;5256210;28;20039;-83
2021/10/18 08:44:38;;;;;;;4.18;1.67;;;;;;;18.71;65.28;101517.22;5234214;28;20032;-84
2021/10/18 08:47:08;;;;;;;2.67;1.45;;;;;;;16.84;71.70;101524.94;5236526;28;20429;-83
2021/10/18 08:49:38;;;;;;;3.38;1.42;;;;;;;16.74;71.03;101522.78;5234058;28;20403;-83
2021/10/18 08:52:09;;;;;;;4.05;1.70;;;;;;;16.23;71.63;101517.16;5253591;28;20209;-83
2021/10/18 08:54:40;;;;;;;4.20;1.90;;;;;;;15.45;74.42;101524.00;5234288;28;20029;-82
2021/10/18 08:57:10;;;;;;;5.88;1.77;;;;;;;15.24;77.57;101529.22;5235990;28;20024;-83
2021/10/18 08:59:40;;;;;;;4.90;1.85;;;;;;;14.94;75.73;101533.03;5233746;28;20131;-84
2021/10/18 09:02:10;;;;;;;5.70;2.00;;;;;;;14.86;77.08;101527.22;5232067;28;20026;-82
2021/10/18 09:04:41;;;;;;;4.25;2.20;;;;;;;15.02;75.71;101539.72;5250317;28;20033;-83
2021/10/18 09:07:17;;;;;;;7.18;2.20;;;;;;;15.21;75.47;101531.97;5233444;28;20047;-82
2021/10/18 09:09:49;;;;;;;;;;;;;;;15.41;77.15;101538.22;5233262;28;20029;-82
2021/10/18 09:12:28;;;;;;;4.75;2.10;;;;;;;15.33;75.96;101536.81;5251541;28;19943;-83
2021/10/18 09:15:17;;;;;;;4.07;2.00;;;;;;;15.03;76.01;101536.16;5234077;28;20029;-82
2021/10/18 09:17:56;;;;;;;4.90;2.15;;;;;;;15.11;77.02;101538.50;5246456;28;20016;-82
2021/10/18 09:20:36;;;;;;;5.10;2.00;;;;;;;15.23;75.90;101538.03;5252457;28;20035;-83
2021/10/18 09:23:18;;;;;;;5.45;2.10;;;;;;;14.88;76.59;101547.28;5233496;28;20392;-82
2021/10/18 09:25:48;;;;;;;4.70;1.98;;;;;;;15.12;77.08;101541.09;5227924;28;20050;-83
2021/10/18 09:28:25;;;;;;;6.07;2.05;;;;;;;15.10;75.67;101548.19;5246230;28;20166;-83
2021/10/18 09:30:56;;;;;;;4.90;1.80;;;;;;;15.16;76.66;101541.84;5229868;28;20028;-83
2021/10/18 09:33:34;;;;;;;4.82;1.95;;;;;;;14.76;77.49;101552.16;5229740;28;20743;-83
2021/10/18 09:36:09;;;;;;;6.75;1.88;;;;;;;15.07;76.58;101542.19;5228253;28;20032;-83
2021/10/18 09:38:39;;;;;;;5.63;1.80;;;;;;;15.03;74.13;101546.69;5233116;28;20039;-82
2021/10/18 09:41:10;;;;;;;6.03;1.90;;;;;;;15.25;75.38;101542.34;5232613;28;20044;-83
2021/10/18 09:43:52;;;;;;;5.97;2.40;;;;;;;15.09;75.38;101537.72;5231200;28;20089;-84
2021/10/18 09:46:36;;;;;;;4.45;2.20;;;;;;;15.20;75.66;101541.63;5230311;28;20282;-82
2021/10/18 10:52:48;;;;;;;5.97;1.90;;;;;;;15.84;71.45;101532.91;5258558;28;20095;-84
2021/10/18 10:55:48;;;;;;;5.93;1.55;;;;;;;15.83;72.44;101533.81;5235473;28;20036;-84
2021/10/18 10:58:49;;;;;;;2.95;1.50;;;;;;;15.93;71.58;101526.38;5234553;28;20044;-83
2021/10/18 11:01:38;;;;;;;3.67;1.70;;;;;;;15.66;72.40;101519.59;5236845;28;20120;-82
2021/10/18 11:04:30;;;;;;;5.35;1.77;;;;;;;15.51;74.24;101522.91;5254537;28;20031;-82
2021/10/18 11:07:08;;;;;;;7.25;1.75;;;;;;;15.61;74.23;101518.94;5236255;28;20024;-83
2021/10/18 11:09:49;;;;;;;6.40;1.80;;;;;;;15.72;73.47;101512.31;5251685;28;20331;-83
2021/10/18 11:12:24;;;;;;;5.15;1.75;;;;;;;15.75;71.63;101509.56;5252305;28;20028;-83
2021/10/18 11:15:08;;;;;;;4.33;1.83;;;;;;;15.53;73.16;101506.09;5237316;28;20028;-83
2021/10/18 11:18:05;;;;;;;7.53;2.45;;;;;;;15.47;71.00;101506.34;5235285;28;20039;-82
2021/10/18 11:20:35;;;;;;;;;;;;;;;15.55;71.74;101511.31;5231946;28;20410;-82
2021/10/18 11:23:06;;;;;;;8.98;2.80;;;;;;;15.53;72.93;101506.09;5254441;28;20007;-83
2021/10/18 11:25:38;;;;;;;5.25;1.83;;;;;;;15.52;72.35;101509.63;5234791;28;20448;-84
2021/10/18 11:28:09;;;;;;;4.90;1.83;;;;;;;15.46;71.04;101507.25;5236068;28;20031;-83
2021/10/18 11:30:41;;;;;;;5.07;1.75;;;;;;;15.52;69.93;101504.38;5235282;28;20052;-83
2021/10/18 11:33:14;;;;;;;3.58;1.50;;;;;;;15.46;71.67;101499.34;5254495;28;20049;-82
2021/10/18 11:35:45;;;;;;;4.88;1.70;;;;;;;15.15;71.76;101506.75;5252565;28;20040;-82
2021/10/18 11:38:17;;;;;;;5.38;1.70;;;;;;;15.24;71.39;101501.13;5238836;28;20044;-83
2021/10/18 11:40:51;;;;;;;2.08;1.10;;;;;;;15.16;71.26;101500.56;5236758;28;20334;-83
2021/10/18 11:43:24;;;;;;;4.53;1.20;;;;;;;15.22;72.14;101494.19;5234852;28;20040;-83
2021/10/18 11:45:56;;;;;;;3.17;1.33;;;;;;;15.08;72.77;101500.00;5231141;28;20051;-82
2021/10/18 11:48:30;;;;;;;3.95;1.60;;;;;;;15.26;72.81;101491.38;5249757;28;20102;-83
2021/10/18 11:51:02;;;;;;;3.97;1.60;;;;;;;15.26;72.05;101496.66;5257810;28;20066;-84
2021/10/18 11:53:44;;;;;;;3.13;0.93;;;;;;;15.36;72.83;101487.47;5253076;28;20039;-83
2021/10/18 11:56:18;;;;;;;3.63;1.50;;;;;;;15.39;70.57;101487.34;5232544;28;20056;-84
2021/10/18 11:58:49;;;;;;;2.80;1.27;;;;;;;15.42;72.69;101492.50;5253348;28;20040;-83
2021/10/18 12:01:21;;;;;;;2.22;1.10;;;;;;;15.40;72.70;101491.69;5252136;28;20024;-82
2021/10/18 12:03:58;;;;;;;4.10;1.50;;;;;;;15.52;73.06;101483.28;5232711;28;20718;-82
2021/10/18 12:06:28;;;;;;;4.93;2.25;;;;;;;15.39;71.45;101475.97;5252072;23;20043;-76
2021/10/18 12:09:00;;;;;;;3.55;1.92;;;;;;;15.56;71.81;101484.88;5264739;28;20324;-77
2021/10/18 12:11:31;;;;;;;3.67;2.10;;;;;;;15.37;71.58;101473.38;5264687;28;20060;-77
2021/10/18 12:14:03;;;;;;;4.25;2.10;;;;;;;15.60;70.06;101464.53;5266124;28;20062;-78
2021/10/18 12:16:37;;;;;;;6.35;1.80;;;;;;;15.71;72.11;101457.03;5256518;28;20039;-77
2021/10/18 12:19:07;;;;;;;5.90;1.88;;;;;;;15.70;73.96;101461.44;5253522;28;20035;-77
2021/10/18 12:21:41;;;;;;;3.08;1.75;;;;;;;15.60;74.87;101449.59;5261229;28;20032;-76
2021/10/18 12:24:16;;;;;;;3.28;1.73;;;;;;;15.78;71.92;101440.91;5256918;28;20032;-76
2021/10/18 12:26:52;;;;;;;2.92;1.65;;;;;;;15.64;72.43;101445.91;5259963;28;20032;-77
2021/10/18 12:29:23;;;;;;;4.95;1.40;;;;;;;15.63;72.25;101448.56;5259924;28;20032;-78
2021/10/18 12:31:56;;;;;;;2.85;1.38;;;;;;;15.73;71.96;101434.94;5255812;28;20484;-77
2021/10/18 12:34:29;;;;;;;3.67;1.60;;;;;;;15.67;73.02;101437.00;5254250;28;20034;-75
2021/10/18 12:37:11;;;;;;;4.05;1.50;;;;;;;15.63;73.45;101438.91;5260368;28;20085;-78
2021/10/18 12:39:48;;;;;;;2.47;1.30;;;;;;;15.61;72.62;101424.94;5257718;28;20028;-77
2021/10/18 12:42:28;;;;;;;2.38;1.20;;;;;;;15.56;73.65;101431.31;5261653;28;20032;-76
2021/10/18 12:45:19;;;;;;;2.65;1.10;;;;;;;15.58;73.60;101422.44;5257581;28;20036;-77
2021/10/18 12:47:54;;;;;;;2.10;1.00;;;;;;;15.71;72.89;101412.22;5260626;28;20120;-76
2021/10/18 12:50:26;;;;;;;1.88;1.05;;;;;;;15.52;72.41;101409.50;5254392;28;20299;-77
2021/10/18 12:53:02;;;;;;;2.17;1.23;;;;;;;15.32;74.09;101408.66;5253469;28;20329;-78
2021/10/18 12:55:35;;;;;;;4.05;1.60;;;;;;;15.60;73.90;101407.41;5254695;28;20017;-75